Deer Lodge (38S)
Deer Lodge, MT
Field Elevation: 4692
Lat: 49°23.27N  Long: 112°45.89W
CTAF/Unicom Freq: 120.0250
   
     For Weather-by-Phone, call 406-846-1177
Weather Advisories
4/17/2014 00:47 Z
Altimeter 30.01" Hg
Wind 290° @ 11 KT
Gusts 15 KT
Visibility 10 SM
Temperature 9° C (48° F)
Dewpoint -6° C (21° F)
Relative Humidity 36%
Density Altitude --
Condensation Altitude 11,900 feet
Wind Chill 6° C (43° F)
  Wind and Runways
Indicated Runway = 30
History
 
 
More Info
All DigiWx sites map
Weather Radar
NOAA Forecast
 
Airport IQ 5010
(S59) Libby
(6S5) Ravalli County
 
about DigiWx
 
FAA Disclaimer: The data displayed is for advisory purposes only and is not to be used for flight planning or operations. For official data, please call 406-846-1177 to hear the current automated AWOS voice message.
  METAR 38S 170047Z AUTO 29011G15KT 10SM 09/M06 A3001